Date,TemperatureHighF,TemperatureAvgF,TemperatureLowF,DewpointHighF,DewpointAvgF,DewpointLowF,HumidityHigh,HumidityAvg,HumidityLow,PressureMaxIn,PressureMinIn,WindSpeedMaxMPH,WindSpeedAvgMPH,GustSpeedMaxMPH,PrecipitationSumIn
2013-4-21,84.2,67.6,61.5,56.0,52.3,50.9,71,59,36,29.64,29.56,4,1,8,0.05
2013-4-22,85.6,70.8,55.2,60.9,56.6,51.8,94,63,41,29.63,29.41,8,2,13,0.00
2013-4-23,79.7,62.7,47.1,64.0,53.4,39.4,87,72,47,29.67,29.38,9,2,14,0.00
2013-4-24,69.1,53.2,41.7,40.3,36.4,30.4,82,55,31,29.80,29.67,11,2,14,0.00
2013-4-25,73.9,62.1,52.5,46.9,44.1,39.2,65,52,36,29.85,29.70,4,1,6,0.00
2013-4-26,78.1,68.1,58.6,68.6,61.0,43.2,97,79,47,29.70,29.54,8,2,11,0.01
2013-4-27,94.5,74.2,67.1,69.5,64.9,59.8,94,75,42,29.62,29.49,4,1,8,0.74
2013-4-28,90.1,75.1,61.3,66.3,61.2,56.1,96,66,35,29.59,29.40,4,1,9,0.01
2013-4-29,87.4,73.2,64.0,65.8,62.5,58.0,96,72,45,29.48,29.34,9,2,13,0.00
2013-4-30,86.9,72.9,61.2,66.9,62.4,59.7,97,72,47,29.39,29.28,6,1,9,0.00
2013-5-1,88.5,76.3,65.5,66.8,64.5,61.8,94,69,46,29.52,29.33,5,2,9,0.00
2013-5-2,72.3,54.4,44.8,62.7,46.2,34.8,84,74,64,29.86,29.46,11,4,21,0.05
2013-5-3,72.3,54.5,39.2,34.8,30.1,21.5,74,45,15,29.86,29.61,10,2,20,0.00
2013-5-4,87.6,63.8,42.8,42.1,34.7,29.4,65,39,15,29.61,29.43,4,1,9,0.00
2013-5-5,80.1,62.3,43.5,52.2,42.5,35.6,75,50,27,29.69,29.54,6,1,12,0.00
2013-5-6,81.5,63.8,45.3,52.8,47.6,41.3,87,59,33,29.68,29.54,2,0,5,0.00
2013-5-7,88.3,70.2,47.7,54.9,50.6,44.0,89,54,28,29.62,29.44,8,1,11,0.00
2013-5-8,85.1,72.8,61.9,63.8,60.3,53.2,90,67,48,29.55,29.43,8,3,11,0.00
2013-5-9,78.6,69.8,63.5,67.7,64.1,58.1,96,82,66,29.54,29.35,4,1,11,0.17
2013-5-10,91.0,71.3,59.0,67.3,61.7,55.4,98,75,42,29.58,29.34,12,1,20,0.96
2013-5-11,84.0,70.3,58.8,64.6,58.8,51.7,99,71,39,29.70,29.55,5,1,11,0.01
2013-5-12,87.3,68.6,54.3,60.7,52.9,12.1,87,60,33,29.81,29.67,3,0,7,0.00
2013-5-13,88.7,70.6,48.0,59.2,52.4,45.6,93,58,26,29.80,29.70,5,1,10,0.00
2013-5-14,87.4,74.4,60.6,67.9,61.7,55.6,89,67,45,29.76,29.54,8,2,11,0.00
2013-5-15,86.9,74.3,64.4,73.1,69.2,63.4,99,85,63,29.63,29.36,8,3,14,0.26
2013-5-16,94.3,79.2,64.0,75.4,71.3,63.2,99,79,51,29.45,29.27,8,3,11,0.31
2013-5-24,94.3,71.2,54.7,99.9,62.5,53.6,99,78,37,29.67,29.41,4,0,7,1.32
2013-5-25,84.2,73.3,66.6,75.4,70.4,66.3,99,91,71,29.68,29.58,8,2,13,0.86
2013-5-26,89.2,77.8,70.9,76.9,72.4,69.0,98,84,65,29.64,29.52,8,2,11,0.08
2013-5-27,91.6,78.4,70.5,76.2,71.4,68.0,94,80,59,29.57,29.39,8,3,14,0.00
2013-5-28,90.1,79.7,71.6,74.8,71.2,68.4,91,76,58,29.45,29.33,10,4,16,0.00
2013-5-29,87.8,77.6,73.2,76.7,71.9,69.4,93,83,66,29.44,29.26,11,4,18,0.07
2013-5-30,91.4,79.5,74.3,76.2,72.5,70.7,90,80,61,29.39,29.31,8,3,14,0.00
2013-5-31,91.6,82.5,75.6,77.1,73.9,72.1,90,76,62,29.42,29.31,6,3,12,0.00
2013-6-1,97.0,84.2,75.4,78.0,74.0,71.6,89,73,52,29.47,29.33,7,2,11,0.00
2013-6-2,93.6,79.1,67.3,74.2,67.7,61.5,95,70,47,29.63,29.47,4,0,9,0.01
2013-6-3,97.9,79.0,59.2,71.3,65.4,57.6,96,67,41,29.55,29.39,5,1,8,0.00
2013-6-4,96.1,82.0,69.8,72.3,69.1,65.4,94,67,45,29.47,29.36,9,2,11,0.00
2013-6-5,95.0,80.8,69.8,73.9,69.6,64.8,93,71,47,29.48,29.33,8,2,12,0.00
2013-6-6,98.4,81.2,70.5,73.2,69.4,64.7,92,70,42,29.50,29.36,7,1,10,0.00
2013-6-7,91.0,77.0,65.7,68.3,63.6,56.8,95,66,42,29.58,29.44,4,0,8,0.00
2013-6-8,93.4,77.0,57.7,71.6,63.9,54.3,91,66,48,29.50,29.35,5,2,8,0.00
2013-6-9,95.2,80.1,66.4,75.3,70.9,63.8,97,75,49,29.54,29.40,5,1,11,0.11
2013-6-10,100.2,84.1,69.1,76.1,70.7,67.3,96,68,37,29.56,29.47,4,1,8,0.00
2013-6-11,95.4,83.1,73.4,74.5,72.0,69.1,95,71,48,29.60,29.51,6,2,11,0.00
2013-6-12,98.1,83.2,73.8,75.5,72.5,70.2,93,72,47,29.61,29.51,6,2,11,0.00
2013-6-13,98.8,83.3,72.9,75.9,72.1,67.4,96,71,46,29.63,29.49,4,1,8,0.00
2013-6-14,95.0,81.2,71.4,76.7,72.3,69.0,93,76,53,29.56,29.47,4,1,7,0.00
2013-6-15,79.5,77.7,76.3,74.7,73.4,72.7,93,87,80,29.54,29.48,2,0,4,0.00
2013-6-20,95.2,79.8,66.4,75.3,70.7,63.8,97,75,49,29.54,29.40,5,1,11,0.11
2013-6-21,100.2,84.4,69.1,76.1,70.8,67.3,96,68,36,29.56,29.47,4,1,8,0.00
2013-6-22,95.4,82.9,73.4,74.7,71.9,69.1,95,72,48,29.60,29.51,6,2,11,0.00
2013-6-23,98.1,83.3,73.8,75.5,72.6,70.3,93,72,47,29.62,29.51,6,2,11,0.00
2013-6-24,98.8,83.3,72.9,75.9,72.0,67.4,96,71,45,29.63,29.49,4,1,8,0.00
2013-6-25,95.0,81.3,71.4,76.7,72.5,69.0,93,76,52,29.56,29.47,4,1,7,0.00
2013-6-26,100.8,84.7,76.3,75.5,72.5,68.1,93,70,41,29.54,29.44,8,2,13,0.35
2013-6-27,107.2,87.9,74.8,73.1,69.6,61.8,86,58,32,29.60,29.46,5,2,8,0.00
2013-6-28,109.2,90.5,74.7,75.5,69.9,62.1,82,54,31,29.56,29.38,4,1,5,0.00
2013-6-29,108.9,93.0,73.6,77.5,69.3,63.6,76,49,31,29.44,29.33,4,0,9,0.00
2013-6-30,101.8,86.6,71.1,72.9,68.0,61.9,87,56,38,29.52,29.39,4,1,7,0.05
2013-7-1,91.4,80.1,68.4,65.1,60.1,54.8,65,52,37,29.58,29.48,5,1,10,0.00
2013-7-2,97.2,80.1,63.5,67.5,57.8,48.8,71,49,28,29.64,29.53,4,1,9,0.00
2013-7-3,100.8,81.3,60.1,68.3,57.4,50.2,73,47,28,29.60,29.47,8,0,11,0.00
2013-7-4,99.3,81.4,67.3,67.8,62.1,53.2,86,55,32,29.56,29.45,5,1,8,0.00
2013-7-5,101.3,86.4,68.7,69.3,65.7,61.6,84,54,33,29.55,29.40,5,2,8,0.00
2013-7-6,100.4,85.2,68.4,72.9,68.3,64.0,87,60,36,29.51,29.39,7,2,11,0.00
2013-7-7,104.0,85.9,73.2,74.2,71.0,68.0,88,64,39,29.55,29.44,8,2,12,0.02
2013-7-8,88.2,80.8,75.7,74.4,71.2,68.2,88,73,56,29.67,29.54,4,1,9,0.05
2013-7-9,101.3,86.5,72.3,74.4,71.4,68.7,94,64,41,29.71,29.56,6,2,11,0.00
2013-7-10,102.4,88.4,73.2,73.9,71.2,67.4,90,60,38,29.65,29.48,6,2,9,0.00
2013-7-11,104.4,89.7,75.6,75.5,70.1,64.6,83,55,34,29.57,29.43,5,1,9,0.00
2013-7-12,104.7,90.2,75.0,72.7,68.9,65.5,76,52,35,29.53,29.44,5,1,10,0.00
2013-7-13,105.3,90.9,73.9,73.0,68.4,64.1,76,50,34,29.55,29.41,5,0,9,0.00
2013-7-14,96.6,79.8,68.9,70.4,65.7,62.3,93,64,41,29.51,29.42,4,1,8,0.06
2013-7-15,74.1,70.3,67.1,72.9,69.0,66.0,97,96,94,29.59,29.47,6,0,11,1.24
2013-7-16,91.9,76.2,69.1,77.1,71.1,67.9,97,86,54,29.70,29.58,5,0,11,0.60
2013-7-17,91.9,75.5,70.7,76.6,70.9,67.7,97,87,55,29.75,29.66,8,0,11,0.21
2013-7-18,97.3,81.8,70.9,76.0,70.4,66.3,96,72,44,29.73,29.56,4,0,6,0.00
2013-7-19,98.8,83.3,69.4,73.0,68.8,65.6,93,65,40,29.64,29.48,5,1,8,0.00
2013-7-20,99.0,83.3,73.4,72.7,69.7,67.3,87,66,42,29.57,29.41,5,1,10,0.00
2013-7-21,98.4,82.5,73.0,75.3,70.9,67.2,90,70,45,29.52,29.44,5,1,10,0.01
2013-7-22,97.9,86.0,75.7,74.1,71.5,68.1,86,64,45,29.55,29.45,5,2,11,0.00
2013-7-23,98.4,86.3,76.6,72.5,70.3,65.5,82,61,42,29.56,29.44,6,2,12,0.00
2013-7-24,82.2,77.7,74.7,71.6,70.9,70.0,86,80,69,29.52,29.47,4,2,8,0.00
2013-7-25,101.7,87.1,74.1,74.6,69.9,64.3,86,59,41,29.59,29.51,4,1,7,0.00
2013-7-26,101.8,86.8,75.7,76.3,70.5,65.9,89,60,42,29.59,29.42,8,1,13,0.31
2013-7-27,92.7,80.0,72.0,73.7,70.1,65.0,93,74,49,29.56,29.46,3,0,8,0.04
2013-7-28,96.8,82.6,70.2,74.5,69.3,64.9,88,66,44,29.52,29.41,4,1,10,0.00
2013-7-29,98.8,86.7,77.0,71.8,69.6,64.9,80,59,37,29.58,29.49,8,3,12,0.00
2013-7-30,99.7,86.3,75.4,72.7,69.7,64.6,82,60,41,29.65,29.53,5,2,14,0.00
2013-7-31,105.4,84.9,73.8,73.8,69.2,63.9,85,62,36,29.65,29.50,4,1,8,0.00
2013-8-1,107.2,90.1,75.7,75.6,69.3,63.9,71,52,36,29.59,29.46,2,1,5,0.00
2013-8-2,102.0,88.5,76.6,72.4,67.5,63.4,65,51,35,29.54,29.45,5,1,9,0.00
2013-8-3,101.1,87.7,75.9,72.0,69.2,65.2,80,56,38,29.58,29.49,5,2,10,0.00
2013-8-4,99.3,87.3,75.2,72.7,70.3,67.0,84,59,43,29.64,29.49,5,2,10,0.00
2013-8-5,99.9,84.2,73.8,72.4,68.7,65.1,81,61,41,29.60,29.52,5,2,8,0.00
2013-8-6,103.1,88.4,74.3,73.8,69.7,65.1,81,56,36,29.52,29.37,8,2,13,0.00
2013-8-7,105.4,89.2,75.6,76.4,70.1,62.8,80,56,35,29.49,29.34,6,2,10,0.00
2013-8-8,104.9,88.6,75.2,73.1,68.8,61.1,81,55,33,29.47,29.34,6,2,10,0.00
2013-8-9,106.2,87.3,73.0,71.2,67.4,58.6,88,56,27,29.54,29.43,4,1,8,0.00
2013-8-10,107.4,88.7,73.9,76.6,69.9,59.4,89,57,34,29.62,29.49,8,1,19,0.63
2013-8-11,103.1,85.7,73.6,75.5,71.4,66.1,92,66,39,29.65,29.53,5,0,11,0.00
2013-8-12,100.6,84.2,72.9,73.9,69.1,64.9,86,63,40,29.64,29.50,6,1,9,0.00
2013-8-13,104.4,88.8,75.4,73.1,68.4,63.0,78,53,35,29.60,29.45,4,1,8,0.00
2013-8-14,102.4,82.5,74.1,75.6,68.5,63.2,89,64,41,29.58,29.47,4,1,9,0.18
2013-8-15,96.4,80.2,72.3,74.1,70.7,68.2,93,75,46,29.59,29.49,4,0,4,0.15
2013-8-16,96.3,80.0,70.2,74.2,67.9,61.9,93,70,43,29.62,29.50,4,0,8,0.01
2013-8-17,97.5,82.0,68.0,70.1,64.1,57.7,83,57,38,29.62,29.50,4,0,8,0.00
2013-8-18,99.5,82.2,64.4,69.8,61.9,56.1,75,53,35,29.63,29.54,4,0,6,0.00
2013-8-19,100.9,82.4,65.1,69.8,63.0,57.3,77,54,36,29.62,29.48,7,1,9,0.00
2013-8-20,99.9,84.0,66.6,69.8,64.5,59.8,82,54,34,29.60,29.49,5,1,10,0.00
2013-8-21,99.9,83.8,71.8,71.8,67.1,63.0,80,59,41,29.65,29.52,6,1,9,0.00
2013-8-22,100.8,84.9,70.9,72.5,68.0,64.7,83,60,40,29.66,29.49,5,1,8,0.00
2013-8-23,102.7,87.4,72.5,72.0,68.1,62.8,84,55,37,29.59,29.46,6,1,9,0.00
2013-8-24,104.4,87.7,73.9,74.4,67.7,63.7,74,53,36,29.62,29.50,4,0,6,0.00
2013-8-25,98.1,85.8,72.1,72.5,67.7,64.6,80,56,42,29.65,29.58,4,1,7,0.00
2013-8-26,96.4,81.7,74.5,71.4,67.3,64.5,78,63,44,29.70,29.58,6,1,8,0.00
2013-8-27,86.9,77.7,72.1,70.9,66.5,60.5,85,69,51,29.68,29.58,4,1,9,0.04
2013-8-28,100.8,83.4,69.6,74.1,67.4,62.7,90,62,38,29.68,29.56,4,1,7,0.00
2013-8-29,106.2,88.1,73.4,73.3,66.4,61.0,71,51,33,29.65,29.52,4,0,7,0.00
2013-8-30,108.5,89.6,76.1,72.3,65.5,60.9,62,47,31,29.59,29.44,4,0,7,0.00
2013-8-31,82.4,78.2,74.5,64.9,63.8,62.2,69,62,51,29.50,29.45,1,0,3,0.00
2013-9-1,105.3,88.8,74.7,73.1,67.3,63.1,70,51,36,29.49,29.36,4,1,7,0.00
2013-9-2,104.5,85.8,73.8,74.8,68.2,63.1,79,57,37,29.54,29.40,3,1,8,0.14
2013-9-3,105.3,86.8,72.0,73.2,67.8,63.6,77,56,36,29.57,29.44,4,0,7,0.00
2013-9-4,104.2,87.1,73.9,74.1,68.4,62.9,87,56,36,29.63,29.49,4,1,7,0.00
2013-9-5,101.7,85.7,70.7,72.6,67.1,62.5,78,56,38,29.67,29.55,4,1,7,0.00
2013-9-6,100.6,86.0,70.3,72.9,67.6,62.4,86,57,36,29.66,29.51,5,1,9,0.00
2013-9-7,101.5,81.4,71.1,71.7,67.1,62.0,85,64,38,29.60,29.46,13,1,18,0.00
2013-9-8,96.8,80.6,32.0,70.7,66.4,13.1,87,64,43,29.56,29.43,7,1,9,0.00
2013-9-9,97.5,80.4,69.3,69.9,66.7,64.7,87,65,39,29.56,29.46,8,1,12,0.00
2013-9-10,95.5,78.7,71.4,70.8,67.3,64.5,87,70,44,29.63,29.54,7,1,10,0.00
2013-9-11,97.7,83.4,70.5,70.7,66.9,62.5,87,60,38,29.67,29.54,4,1,8,0.00
2013-9-12,100.9,84.6,68.7,71.2,65.6,55.0,84,56,35,29.64,29.48,4,0,7,0.00
2013-9-13,102.0,86.0,69.4,72.3,64.3,59.3,78,51,33,29.53,29.38,5,0,9,0.00
2013-9-14,101.5,86.1,70.7,70.0,64.6,59.6,69,51,35,29.51,29.40,5,1,10,0.00
2013-9-15,97.0,82.1,71.8,70.0,66.1,62.3,81,60,42,29.59,29.48,4,0,8,0.00
2013-9-16,97.5,81.2,70.9,71.2,67.0,62.8,88,64,42,29.64,29.51,8,1,11,0.00
2013-9-17,73.9,73.8,73.8,70.2,70.1,70.0,88,88,88,29.61,29.60,1,0,2,0.00
2013-9-18,95.5,82.8,70.2,71.3,66.7,62.7,86,61,41,29.59,29.44,6,1,10,0.00
2013-9-19,95.2,80.1,73.2,71.6,68.3,65.1,88,69,45,29.53,29.39,4,1,7,0.07
2013-9-20,76.3,73.2,69.6,72.5,69.5,66.4,90,88,77,29.50,29.36,4,0,8,0.00
2013-9-21,95.2,80.1,73.9,72.3,70.1,67.4,89,74,45,29.53,29.37,4,1,7,0.07
2013-9-22,76.3,71.8,69.6,72.5,68.4,66.4,90,89,87,29.44,29.36,4,1,8,0.00
2013-10-6,84.2,73.3,55.0,53.1,45.8,40.3,61,39,25,29.69,29.61,8,1,11,0.00
2013-10-7,92.7,69.7,47.3,55.9,46.0,38.0,73,46,24,29.72,29.60,3,0,4,0.00
2013-10-8,89.2,69.7,49.5,56.5,49.8,42.2,76,52,33,29.65,29.53,3,1,5,0.00
2013-10-9,84.9,69.7,52.9,61.3,54.1,46.2,83,59,43,29.61,29.51,4,1,8,0.00
2013-10-10,86.4,72.5,60.1,63.7,59.4,53.3,87,65,46,29.58,29.44,4,2,13,0.00
2013-10-11,90.5,77.6,70.2,69.0,65.5,61.3,77,67,47,29.51,29.39,4,2,11,0.00
2013-10-12,94.3,81.0,72.5,70.4,68.1,64.1,84,67,46,29.59,29.45,4,1,7,0.00
2013-10-13,79.9,70.8,66.0,67.3,64.8,63.2,91,82,62,29.72,29.58,4,1,7,0.01
2013-10-14,79.7,72.5,70.5,69.9,67.4,66.5,90,85,65,29.65,29.53,3,1,4,0.00
2013-11-27,53.6,41.8,30.0,29.7,25.5,21.6,76,54,35,29.94,29.83,5,1,8,0.04
2013-11-28,54.1,39.0,27.9,34.1,27.6,21.0,80,65,42,29.91,29.81,3,0,6,0.00
2013-11-29,64.2,48.2,27.7,47.2,38.6,21.4,91,71,54,29.97,29.84,4,1,6,0.00
2013-11-30,64.2,55.6,50.5,53.6,46.6,40.9,90,72,61,29.85,29.68,3,1,6,0.00
2013-12-1,73.0,62.8,55.8,56.5,53.6,51.3,87,73,56,29.70,29.45,5,2,9,0.00
2013-12-2,81.5,64.9,51.3,54.7,48.8,39.6,86,59,31,29.47,29.21,6,1,9,0.00
2013-12-3,86.0,65.5,48.2,54.2,45.7,38.5,72,51,27,29.23,29.14,4,1,7,0.00
2013-12-4,76.6,65.6,56.1,60.5,54.2,43.3,87,67,55,29.32,29.19,5,1,8,0.00
2013-12-5,62.8,40.4,28.2,59.2,32.5,22.1,89,73,61,29.59,29.31,9,3,16,0.00
2013-12-6,31.1,29.0,24.4,28.0,23.3,16.4,88,79,68,29.89,29.53,8,4,14,0.00
2013-12-7,27.3,24.1,21.9,19.7,16.3,13.8,83,72,65,29.91,29.70,7,2,13,0.00
2013-12-8,48.2,33.2,24.1,38.0,27.7,19.7,89,80,67,29.70,29.48,2,0,4,0.01
2013-12-9,36.7,33.7,30.2,35.1,31.3,25.1,94,90,81,29.83,29.50,7,2,11,0.04
2013-12-10,45.5,33.2,23.4,28.3,22.3,15.4,83,65,48,29.94,29.79,6,1,11,0.00
2013-12-11,61.7,41.0,23.9,36.9,28.1,17.8,79,62,37,30.02,29.77,3,0,7,0.00
2013-12-12,54.1,40.6,28.9,36.9,30.1,22.7,77,67,51,30.04,29.78,3,0,6,0.00
2013-12-13,49.1,44.1,40.6,48.0,39.3,32.3,96,84,68,29.77,29.37,4,1,8,0.25
2013-12-14,48.7,43.5,35.8,47.7,37.3,26.3,99,80,63,29.81,29.34,8,2,17,0.01
2013-12-15,65.3,45.3,28.4,41.0,31.3,21.7,77,60,39,29.85,29.75,3,0,4,0.00
2013-12-16,68.4,50.0,35.1,42.5,34.3,25.9,71,56,37,29.78,29.68,4,1,5,0.00
2013-12-17,78.4,54.5,38.8,46.1,37.0,29.7,74,54,30,29.81,29.72,2,0,4,0.00
2013-12-18,70.5,55.8,38.8,52.7,44.3,33.0,82,66,52,29.78,29.55,5,1,9,0.00
2013-12-19,74.5,64.0,54.3,58.3,53.8,46.4,80,70,55,29.55,29.32,8,3,14,0.00
2013-12-20,73.6,67.8,64.4,62.5,59.0,57.6,80,74,63,29.38,29.18,7,2,14,0.00
2013-12-21,70.9,50.9,39.7,61.4,43.2,35.7,94,77,52,29.33,29.10,8,1,14,0.33
2013-12-22,53.1,43.8,32.9,39.3,33.6,24.5,86,68,55,29.84,29.33,6,2,11,0.00
2013-12-23,57.6,39.6,26.4,34.7,27.3,19.3,81,63,39,30.00,29.83,3,0,6,0.00
2013-12-24,59.5,42.4,25.2,39.1,29.4,20.6,86,62,37,30.00,29.74,7,1,11,0.00
2013-12-25,63.3,48.1,36.0,47.5,39.4,32.1,92,73,56,29.88,29.71,5,1,9,0.00
2013-12-26,59.7,44.3,33.8,42.7,35.1,28.6,84,71,53,29.91,29.80,3,1,7,0.00
2013-12-27,61.9,48.1,37.9,44.5,38.3,33.4,87,70,46,29.91,29.80,2,0,4,0.00
2013-12-28,66.0,49.7,35.1,47.4,39.4,31.0,92,69,51,29.80,29.50,5,1,6,0.00
2013-12-29,59.2,45.8,30.4,47.3,39.2,26.4,87,78,63,29.76,29.44,8,2,14,0.00
2013-12-30,45.5,35.8,29.1,29.4,25.4,20.2,85,66,52,29.85,29.69,5,1,11,0.00
2013-12-31,57.6,41.3,29.7,36.1,29.2,23.4,78,63,43,29.91,29.69,4,0,6,0.00
2014-1-1,68.5,50.7,34.2,51.7,39.8,25.8,87,67,53,29.69,29.47,6,2,12,0.00
2014-1-2,50.9,38.7,26.8,38.4,25.6,17.3,71,60,45,29.92,29.62,8,3,16,0.00